sensor_id;sensor_type;location;lat;lon;timestamp;pressure;altitude;pressure_sealevel;temperature;humidity
35331;BME280;21441;52.190;20.910;2023-01-27T00:01:04;100533.63;;;0.66;100.00
35331;BME280;21441;52.190;20.910;2023-01-27T00:03:33;100545.09;;;0.65;100.00
35331;BME280;21441;52.190;20.910;2023-01-27T00:06:00;100542.81;;;0.73;100.00
35331;BME280;21441;52.190;20.910;2023-01-27T00:08:29;100535.06;;;0.84;100.00
35331;BME280;21441;52.190;20.910;2023-01-27T00:10:57;100539.59;;;0.95;100.00
35331;BME280;21441;52.190;20.910;2023-01-27T00:13:39;100533.59;;;0.93;100.00
35331;BME280;21441;52.190;20.910;2023-01-27T00:16:06;100528.81;;;0.72;100.00
35331;BME280;21441;52.190;20.910;2023-01-27T00:18:35;100538.09;;;0.78;100.00
35331;BME280;21441;52.190;20.910;2023-01-27T00:21:02;100507.34;;;0.53;100.00
35331;BME280;21441;52.190;20.910;2023-01-27T00:23:48;100546.50;;;0.83;100.00
35331;BME280;21441;52.190;20.910;2023-01-27T00:26:32;100539.75;;;0.79;100.00
35331;BME280;21441;52.190;20.910;2023-01-27T00:29:00;100549.13;;;0.83;100.00
35331;BME280;21441;52.190;20.910;2023-01-27T00:31:27;100527.78;;;0.75;100.00
35331;BME280;21441;52.190;20.910;2023-01-27T00:34:14;100550.47;;;0.76;100.00
35331;BME280;21441;52.190;20.910;2023-01-27T00:36:41;100549.81;;;0.59;100.00
35331;BME280;21441;52.190;20.910;2023-01-27T00:39:10;100543.31;;;0.38;100.00
35331;BME280;21441;52.190;20.910;2023-01-27T00:41:38;100543.34;;;0.78;100.00
35331;BME280;21441;52.190;20.910;2023-01-27T00:44:07;100548.19;;;0.84;100.00
35331;BME280;21441;52.190;20.910;2023-01-27T00:46:37;100544.56;;;0.72;100.00
35331;BME280;21441;52.190;20.910;2023-01-27T00:49:05;100549.53;;;0.77;100.00
35331;BME280;21441;52.190;20.910;2023-01-27T00:51:34;100552.13;;;0.64;100.00
35331;BME280;21441;52.190;20.910;2023-01-27T00:54:02;100544.59;;;0.45;100.00
35331;BME280;21441;52.190;20.910;2023-01-27T00:56:30;100540.72;;;0.51;100.00
35331;BME280;21441;52.190;20.910;2023-01-27T00:58:58;100544.72;;;0.56;100.00
35331;BME280;21441;52.190;20.910;2023-01-27T01:01:25;100545.69;;;0.55;100.00
35331;BME280;21441;52.190;20.910;2023-01-27T01:03:53;100552.44;;;0.59;100.00
35331;BME280;21441;52.190;20.910;2023-01-27T01:06:21;100556.22;;;0.41;100.00
35331;BME280;21441;52.190;20.910;2023-01-27T01:08:50;100554.25;;;0.45;100.00
35331;BME280;21441;52.190;20.910;2023-01-27T01:11:19;100548.31;;;0.55;100.00
35331;BME280;21441;52.190;20.910;2023-01-27T01:13:47;100551.25;;;0.36;100.00
35331;BME280;21441;52.190;20.910;2023-01-27T01:16:16;100550.78;;;0.44;100.00
35331;BME280;21441;52.190;20.910;2023-01-27T01:18:44;100551.63;;;0.45;100.00
35331;BME280;21441;52.190;20.910;2023-01-27T01:21:12;100540.22;;;0.58;100.00
35331;BME280;21441;52.190;20.910;2023-01-27T01:23:41;100546.25;;;0.73;100.00
35331;BME280;21441;52.190;20.910;2023-01-27T01:26:12;100549.88;;;0.58;100.00
35331;BME280;21441;52.190;20.910;2023-01-27T01:28:40;100536.81;;;0.44;100.00
35331;BME280;21441;52.190;20.910;2023-01-27T01:31:09;100546.81;;;0.51;100.00
35331;BME280;21441;52.190;20.910;2023-01-27T01:33:37;100544.22;;;0.37;100.00
35331;BME280;21441;52.190;20.910;2023-01-27T01:36:05;100539.03;;;0.50;100.00
35331;BME280;21441;52.190;20.910;2023-01-27T01:38:33;100544.34;;;0.63;100.00
35331;BME280;21441;52.190;20.910;2023-01-27T01:41:00;100545.28;;;0.61;100.00
35331;BME280;21441;52.190;20.910;2023-01-27T01:43:29;100524.66;;;0.28;100.00
35331;BME280;21441;52.190;20.910;2023-01-27T01:45:57;100544.28;;;0.50;100.00
35331;BME280;21441;52.190;20.910;2023-01-27T01:48:30;100551.41;;;0.48;100.00
35331;BME280;21441;52.190;20.910;2023-01-27T01:51:02;100548.78;;;0.48;100.00
35331;BME280;21441;52.190;20.910;2023-01-27T01:53:35;100547.34;;;0.56;100.00
35331;BME280;21441;52.190;20.910;2023-01-27T01:56:08;100559.13;;;0.51;100.00
35331;BME280;21441;52.190;20.910;2023-01-27T01:58:38;100554.31;;;0.57;100.00
35331;BME280;21441;52.190;20.910;2023-01-27T02:01:06;100557.34;;;0.37;100.00
35331;BME280;21441;52.190;20.910;2023-01-27T02:03:34;100552.53;;;0.31;100.00
35331;BME280;21441;52.190;20.910;2023-01-27T02:06:06;100549.78;;;0.32;100.00
35331;BME280;21441;52.190;20.910;2023-01-27T02:08:37;100553.16;;;0.34;100.00
35331;BME280;21441;52.190;20.910;2023-01-27T02:11:06;100545.09;;;0.37;100.00
35331;BME280;21441;52.190;20.910;2023-01-27T02:13:34;100547.81;;;0.36;100.00
35331;BME280;21441;52.190;20.910;2023-01-27T02:16:03;100549.50;;;0.64;100.00
35331;BME280;21441;52.190;20.910;2023-01-27T02:18:31;100539.75;;;0.79;100.00
35331;BME280;21441;52.190;20.910;2023-01-27T02:20:58;100554.50;;;0.81;100.00
35331;BME280;21441;52.190;20.910;2023-01-27T02:23:38;100544.28;;;0.50;100.00
35331;BME280;21441;52.190;20.910;2023-01-27T02:26:13;100538.09;;;0.51;100.00
35331;BME280;21441;52.190;20.910;2023-01-27T02:28:42;100559.00;;;0.52;100.00
35331;BME280;21441;52.190;20.910;2023-01-27T02:31:09;100549.25;;;0.54;100.00
35331;BME280;21441;52.190;20.910;2023-01-27T02:33:37;100545.03;;;0.52;100.00
35331;BME280;21441;52.190;20.910;2023-01-27T02:36:07;100550.25;;;0.66;100.00
35331;BME280;21441;52.190;20.910;2023-01-27T02:38:38;100556.63;;;1.02;100.00
35331;BME280;21441;52.190;20.910;2023-01-27T02:41:11;100552.16;;;1.17;100.00
35331;BME280;21441;52.190;20.910;2023-01-27T02:43:40;100548.44;;;1.07;100.00
35331;BME280;21441;52.190;20.910;2023-01-27T02:46:07;100551.78;;;0.96;100.00
35331;BME280;21441;52.190;20.910;2023-01-27T02:48:35;100548.50;;;0.79;100.00
35331;BME280;21441;52.190;20.910;2023-01-27T02:51:02;100560.78;;;0.52;100.00
35331;BME280;21441;52.190;20.910;2023-01-27T02:53:30;100558.38;;;0.49;100.00
35331;BME280;21441;52.190;20.910;2023-01-27T02:55:57;100554.03;;;0.48;100.00
35331;BME280;21441;52.190;20.910;2023-01-27T02:58:26;100558.00;;;0.68;100.00
35331;BME280;21441;52.190;20.910;2023-01-27T03:00:53;100544.13;;;0.93;100.00
35331;BME280;21441;52.190;20.910;2023-01-27T03:03:21;100539.03;;;0.90;100.00
35331;BME280;21441;52.190;20.910;2023-01-27T03:05:48;100553.69;;;0.67;100.00
35331;BME280;21441;52.190;20.910;2023-01-27T03:08:17;100559.56;;;0.57;100.00
35331;BME280;21441;52.190;20.910;2023-01-27T03:10:48;100556.88;;;0.45;100.00
35331;BME280;21441;52.190;20.910;2023-01-27T03:13:20;100560.13;;;0.48;100.00
35331;BME280;21441;52.190;20.910;2023-01-27T03:15:48;100551.97;;;0.53;100.00
35331;BME280;21441;52.190;20.910;2023-01-27T03:18:33;100558.88;;;0.68;100.00
35331;BME280;21441;52.190;20.910;2023-01-27T03:21:02;100555.69;;;1.16;100.00
35331;BME280;21441;52.190;20.910;2023-01-27T03:23:30;100550.69;;;1.26;100.00
35331;BME280;21441;52.190;20.910;2023-01-27T03:25:59;100551.34;;;0.89;100.00
35331;BME280;21441;52.190;20.910;2023-01-27T03:28:28;100558.44;;;0.74;100.00
35331;BME280;21441;52.190;20.910;2023-01-27T03:30:59;100554.59;;;0.53;100.00
35331;BME280;21441;52.190;20.910;2023-01-27T03:33:27;100560.75;;;0.66;100.00
35331;BME280;21441;52.190;20.910;2023-01-27T03:35:55;100560.88;;;0.77;100.00
35331;BME280;21441;52.190;20.910;2023-01-27T03:38:40;100553.75;;;0.52;100.00
35331;BME280;21441;52.190;20.910;2023-01-27T03:41:25;100559.94;;;0.51;100.00
35331;BME280;21441;52.190;20.910;2023-01-27T03:44:09;100558.66;;;0.44;100.00
35331;BME280;21441;52.190;20.910;2023-01-27T03:46:55;100562.66;;;0.50;100.00
35331;BME280;21441;52.190;20.910;2023-01-27T03:49:23;100557.78;;;0.58;100.00
35331;BME280;21441;52.190;20.910;2023-01-27T03:51:50;100555.31;;;0.55;100.00
35331;BME280;21441;52.190;20.910;2023-01-27T03:54:18;100549.00;;;0.45;100.00
35331;BME280;21441;52.190;20.910;2023-01-27T03:56:45;100563.25;;;0.68;100.00
35331;BME280;21441;52.190;20.910;2023-01-27T03:59:13;100567.44;;;0.57;100.00
35331;BME280;21441;52.190;20.910;2023-01-27T04:01:40;100570.19;;;0.69;100.00
35331;BME280;21441;52.190;20.910;2023-01-27T04:04:10;100570.38;;;0.66;100.00
35331;BME280;21441;52.190;20.910;2023-01-27T04:06:55;100566.84;;;0.67;100.00
35331;BME280;21441;52.190;20.910;2023-01-27T04:09:26;100580.25;;;0.89;100.00
35331;BME280;21441;52.190;20.910;2023-01-27T04:11:54;100574.63;;;0.68;100.00
35331;BME280;21441;52.190;20.910;2023-01-27T04:14:23;100577.19;;;0.55;100.00
35331;BME280;21441;52.190;20.910;2023-01-27T04:16:51;100576.91;;;0.60;100.00
35331;BME280;21441;52.190;20.910;2023-01-27T04:19:20;100574.41;;;0.71;100.00
35331;BME280;21441;52.190;20.910;2023-01-27T04:21:47;100585.00;;;0.70;100.00
35331;BME280;21441;52.190;20.910;2023-01-27T04:24:15;100588.19;;;0.75;100.00
35331;BME280;21441;52.190;20.910;2023-01-27T04:26:48;100578.53;;;0.75;100.00
35331;BME280;21441;52.190;20.910;2023-01-27T04:29:16;100584.22;;;0.82;100.00
35331;BME280;21441;52.190;20.910;2023-01-27T04:31:44;100582.22;;;0.86;100.00
35331;BME280;21441;52.190;20.910;2023-01-27T04:34:12;100540.22;;;0.58;100.00
35331;BME280;21441;52.190;20.910;2023-01-27T04:36:41;100576.44;;;0.80;100.00
35331;BME280;21441;52.190;20.910;2023-01-27T04:39:09;100576.03;;;0.87;100.00
35331;BME280;21441;52.190;20.910;2023-01-27T04:41:36;100579.41;;;0.89;100.00
35331;BME280;21441;52.190;20.910;2023-01-27T04:44:05;100580.25;;;0.89;100.00
35331;BME280;21441;52.190;20.910;2023-01-27T04:46:33;100578.44;;;1.30;100.00
35331;BME280;21441;52.190;20.910;2023-01-27T04:49:01;100575.41;;;1.61;100.00
35331;BME280;21441;52.190;20.910;2023-01-27T04:51:29;100574.25;;;1.40;100.00
35331;BME280;21441;52.190;20.910;2023-01-27T04:53:58;100584.97;;;1.37;100.00
35331;BME280;21441;52.190;20.910;2023-01-27T04:56:27;100582.97;;;1.28;100.00
35331;BME280;21441;52.190;20.910;2023-01-27T04:58:57;100584.22;;;1.22;100.00
35331;BME280;21441;52.190;20.910;2023-01-27T05:01:25;100589.41;;;0.96;100.00
35331;BME280;21441;52.190;20.910;2023-01-27T05:03:53;100596.06;;;0.75;100.00
35331;BME280;21441;52.190;20.910;2023-01-27T05:06:21;100596.31;;;0.57;100.00
35331;BME280;21441;52.190;20.910;2023-01-27T05:08:49;100603.25;;;0.58;100.00
35331;BME280;21441;52.190;20.910;2023-01-27T05:11:18;100595.75;;;0.52;100.00
35331;BME280;21441;52.190;20.910;2023-01-27T05:13:46;100597.63;;;0.50;100.00
35331;BME280;21441;52.190;20.910;2023-01-27T05:16:15;100582.28;;;0.44;100.00
35331;BME280;21441;52.190;20.910;2023-01-27T05:18:45;100609.75;;;0.53;100.00
35331;BME280;21441;52.190;20.910;2023-01-27T05:21:15;100606.16;;;0.54;100.00
35331;BME280;21441;52.190;20.910;2023-01-27T05:23:43;100616.72;;;0.67;100.00
35331;BME280;21441;52.190;20.910;2023-01-27T05:26:12;100593.03;;;0.54;100.00
35331;BME280;21441;52.190;20.910;2023-01-27T05:28:44;100575.16;;;0.46;100.00
35331;BME280;21441;52.190;20.910;2023-01-27T05:31:12;100611.47;;;0.67;100.00
35331;BME280;21441;52.190;20.910;2023-01-27T05:33:41;100598.66;;;0.62;100.00
35331;BME280;21441;52.190;20.910;2023-01-27T05:36:10;100612.91;;;0.85;100.00
35331;BME280;21441;52.190;20.910;2023-01-27T05:38:38;100614.03;;;1.08;100.00
35331;BME280;21441;52.190;20.910;2023-01-27T05:41:09;100577.25;;;0.68;100.00
35331;BME280;21441;52.190;20.910;2023-01-27T05:43:38;100618.94;;;1.00;100.00
35331;BME280;21441;52.190;20.910;2023-01-27T05:46:08;100622.97;;;0.78;100.00
35331;BME280;21441;52.190;20.910;2023-01-27T05:48:38;100629.09;;;0.92;100.00
35331;BME280;21441;52.190;20.910;2023-01-27T05:51:06;100608.34;;;1.01;100.00
35331;BME280;21441;52.190;20.910;2023-01-27T05:53:34;100623.50;;;1.11;100.00
35331;BME280;21441;52.190;20.910;2023-01-27T05:56:03;100621.28;;;0.77;100.00
35331;BME280;21441;52.190;20.910;2023-01-27T05:58:31;100629.53;;;0.44;100.00
35331;BME280;21441;52.190;20.910;2023-01-27T06:01:08;100621.28;;;0.36;100.00
35331;BME280;21441;52.190;20.910;2023-01-27T06:03:36;100629.69;;;0.55;100.00
35331;BME280;21441;52.190;20.910;2023-01-27T06:06:04;100606.31;;;0.24;100.00
35331;BME280;21441;52.190;20.910;2023-01-27T06:08:33;100629.63;;;0.28;100.00
35331;BME280;21441;52.190;20.910;2023-01-27T06:11:01;100626.19;;;0.28;100.00
35331;BME280;21441;52.190;20.910;2023-01-27T06:13:29;100635.84;;;0.27;100.00
35331;BME280;21441;52.190;20.910;2023-01-27T06:58:36;100678.03;;;0.66;100.00
35331;BME280;21441;52.190;20.910;2023-01-27T07:01:04;100686.38;;;0.72;100.00
35331;BME280;21441;52.190;20.910;2023-01-27T07:03:32;100676.06;;;0.84;100.00
35331;BME280;21441;52.190;20.910;2023-01-27T07:05:59;100670.16;;;0.80;100.00
35331;BME280;21441;52.190;20.910;2023-01-27T07:08:26;100667.69;;;0.91;100.00
35331;BME280;21441;52.190;20.910;2023-01-27T07:10:54;100668.88;;;1.00;100.00
35331;BME280;21441;52.190;20.910;2023-01-27T07:13:21;100680.59;;;0.94;100.00
35331;BME280;21441;52.190;20.910;2023-01-27T07:15:54;100661.38;;;0.94;100.00
35331;BME280;21441;52.190;20.910;2023-01-27T07:18:22;100682.50;;;1.19;100.00
35331;BME280;21441;52.190;20.910;2023-01-27T07:20:49;100680.06;;;1.16;100.00
35331;BME280;21441;52.190;20.910;2023-01-27T07:23:17;100678.00;;;1.21;100.00
35331;BME280;21441;52.190;20.910;2023-01-27T07:25:44;100675.06;;;1.26;100.00
35331;BME280;21441;52.190;20.910;2023-01-27T07:28:12;100682.44;;;1.34;100.00
35331;BME280;21441;52.190;20.910;2023-01-27T07:30:39;100677.81;;;1.37;100.00
35331;BME280;21441;52.190;20.910;2023-01-27T07:33:10;100680.56;;;1.49;100.00
35331;BME280;21441;52.190;20.910;2023-01-27T07:35:39;100672.41;;;1.66;100.00
35331;BME280;21441;52.190;20.910;2023-01-27T07:38:07;100691.16;;;1.74;100.00
35331;BME280;21441;52.190;20.910;2023-01-27T07:40:35;100687.78;;;1.72;100.00
35331;BME280;21441;52.190;20.910;2023-01-27T07:43:02;100669.03;;;1.64;100.00
35331;BME280;21441;52.190;20.910;2023-01-27T07:45:30;100687.56;;;1.88;100.00
35331;BME280;21441;52.190;20.910;2023-01-27T07:48:02;100669.47;;;1.83;100.00
35331;BME280;21441;52.190;20.910;2023-01-27T07:50:32;100689.16;;;1.91;100.00
35331;BME280;21441;52.190;20.910;2023-01-27T07:52:59;100685.91;;;2.13;100.00
35331;BME280;21441;52.190;20.910;2023-01-27T07:55:28;100696.41;;;2.25;100.00
35331;BME280;21441;52.190;20.910;2023-01-27T07:57:56;100698.31;;;2.36;100.00
35331;BME280;21441;52.190;20.910;2023-01-27T08:00:24;100695.59;;;2.38;100.00
35331;BME280;21441;52.190;20.910;2023-01-27T08:02:53;100693.19;;;2.09;100.00
35331;BME280;21441;52.190;20.910;2023-01-27T08:05:22;100691.78;;;2.03;100.00
35331;BME280;21441;52.190;20.910;2023-01-27T08:07:52;100693.91;;;1.98;100.00
35331;BME280;21441;52.190;20.910;2023-01-27T08:10:20;100684.13;;;1.88;100.00
35331;BME280;21441;52.190;20.910;2023-01-27T08:12:48;100692.84;;;2.01;100.00
35331;BME280;21441;52.190;20.910;2023-01-27T08:15:15;100686.44;;;2.05;100.00
35331;BME280;21441;52.190;20.910;2023-01-27T08:17:42;100688.94;;;2.19;100.00
35331;BME280;21441;52.190;20.910;2023-01-27T08:20:11;100697.81;;;2.31;100.00
35331;BME280;21441;52.190;20.910;2023-01-27T08:22:38;100675.78;;;2.19;100.00
35331;BME280;21441;52.190;20.910;2023-01-27T08:25:08;100692.88;;;2.63;100.00
35331;BME280;21441;52.190;20.910;2023-01-27T08:27:35;100690.63;;;2.83;100.00
35331;BME280;21441;52.190;20.910;2023-01-27T08:30:03;100705.91;;;2.91;100.00
35331;BME280;21441;52.190;20.910;2023-01-27T08:32:30;100688.47;;;3.01;99.32
35331;BME280;21441;52.190;20.910;2023-01-27T08:35:00;100692.22;;;3.09;96.98
35331;BME280;21441;52.190;20.910;2023-01-27T08:37:27;100687.34;;;3.16;99.02
35331;BME280;21441;52.190;20.910;2023-01-27T08:39:54;100707.81;;;3.37;94.32
35331;BME280;21441;52.190;20.910;2023-01-27T08:42:23;100707.56;;;3.40;93.51
35331;BME280;21441;52.190;20.910;2023-01-27T08:44:51;100706.22;;;3.58;91.13
35331;BME280;21441;52.190;20.910;2023-01-27T08:47:18;100708.69;;;3.84;86.25
35331;BME280;21441;52.190;20.910;2023-01-27T08:49:45;100702.16;;;4.23;80.48
35331;BME280;21441;52.190;20.910;2023-01-27T08:52:13;100702.88;;;4.37;74.68
35331;BME280;21441;52.190;20.910;2023-01-27T08:54:41;100696.03;;;4.45;70.38
35331;BME280;21441;52.190;20.910;2023-01-27T08:57:08;100699.88;;;4.75;65.01
35331;BME280;21441;52.190;20.910;2023-01-27T08:59:37;100704.22;;;4.53;64.71
35331;BME280;21441;52.190;20.910;2023-01-27T09:02:05;100697.09;;;4.65;64.54
35331;BME280;21441;52.190;20.910;2023-01-27T09:04:32;100698.56;;;4.36;63.12
35331;BME280;21441;52.190;20.910;2023-01-27T09:07:02;100714.16;;;4.27;63.45
35331;BME280;21441;52.190;20.910;2023-01-27T09:09:30;100710.47;;;4.52;62.15
35331;BME280;21441;52.190;20.910;2023-01-27T09:11:57;100718.72;;;4.25;63.84
35331;BME280;21441;52.190;20.910;2023-01-27T09:14:24;100715.94;;;3.93;65.12
35331;BME280;21441;52.190;20.910;2023-01-27T09:16:53;100702.97;;;4.01;65.24
35331;BME280;21441;52.190;20.910;2023-01-27T09:19:21;100708.50;;;4.09;63.42
35331;BME280;21441;52.190;20.910;2023-01-27T09:21:48;100712.34;;;4.17;63.90
35331;BME280;21441;52.190;20.910;2023-01-27T09:24:15;100708.53;;;4.21;62.57
35331;BME280;21441;52.190;20.910;2023-01-27T09:26:44;100711.31;;;4.30;60.95
35331;BME280;21441;52.190;20.910;2023-01-27T09:29:11;100713.81;;;4.21;60.79
35331;BME280;21441;52.190;20.910;2023-01-27T09:31:38;100708.63;;;4.19;62.19
35331;BME280;21441;52.190;20.910;2023-01-27T09:34:07;100706.34;;;4.14;63.01
35331;BME280;21441;52.190;20.910;2023-01-27T09:36:38;100707.91;;;4.17;62.20
35331;BME280;21441;52.190;20.910;2023-01-27T09:39:07;100676.47;;;4.25;62.43
35331;BME280;21441;52.190;20.910;2023-01-27T09:42:02;100703.84;;;4.24;62.16
35331;BME280;21441;52.190;20.910;2023-01-27T09:44:51;100697.44;;;4.94;58.94
35331;BME280;21441;52.190;20.910;2023-01-27T09:47:32;100687.59;;;6.03;55.90
35331;BME280;21441;52.190;20.910;2023-01-27T09:50:14;100690.59;;;8.55;50.29
35331;BME280;21441;52.190;20.910;2023-01-27T09:53:11;100662.19;;;10.07;46.35
35331;BME280;21441;52.190;20.910;2023-01-27T09:55:48;100665.06;;;10.74;43.81
35331;BME280;21441;52.190;20.910;2023-01-27T09:58:26;100656.16;;;11.32;42.02
35331;BME280;21441;52.190;20.910;2023-01-27T10:01:04;100635.53;;;10.76;42.34
35331;BME280;21441;52.190;20.910;2023-01-27T10:03:53;100660.28;;;10.17;43.88
35331;BME280;21441;52.190;20.910;2023-01-27T10:06:49;100674.50;;;10.00;43.39
35331;BME280;21441;52.190;20.910;2023-01-27T10:09:45;100666.34;;;9.39;44.27
35331;BME280;21441;52.190;20.910;2023-01-27T10:12:28;100675.19;;;9.04;45.41
35331;BME280;21441;52.190;20.910;2023-01-27T10:15:10;100674.75;;;8.63;46.80
35331;BME280;21441;52.190;20.910;2023-01-27T10:17:47;100680.00;;;8.35;47.27
35331;BME280;21441;52.190;20.910;2023-01-27T10:20:24;100682.63;;;7.88;47.33
35331;BME280;21441;52.190;20.910;2023-01-27T10:23:06;100686.72;;;7.24;48.76
35331;BME280;21441;52.190;20.910;2023-01-27T10:25:47;100670.47;;;6.78;49.26
35331;BME280;21441;52.190;20.910;2023-01-27T10:28:21;100681.28;;;6.56;50.31
35331;BME280;21441;52.190;20.910;2023-01-27T10:30:54;100695.56;;;6.34;51.13
35331;BME280;21441;52.190;20.910;2023-01-27T10:33:32;100696.63;;;6.52;50.96
35331;BME280;21441;52.190;20.910;2023-01-27T10:36:07;100702.69;;;6.12;51.98
35331;BME280;21441;52.190;20.910;2023-01-27T10:38:43;100697.78;;;6.08;52.37
35331;BME280;21441;52.190;20.910;2023-01-27T10:41:22;100706.69;;;5.86;51.92
35331;BME280;21441;52.190;20.910;2023-01-27T10:44:03;100702.56;;;5.40;54.04
35331;BME280;21441;52.190;20.910;2023-01-27T10:46:50;100718.25;;;5.31;54.21
35331;BME280;21441;52.190;20.910;2023-01-27T10:49:24;100708.09;;;5.48;53.93
35331;BME280;21441;52.190;20.910;2023-01-27T10:51:56;100691.88;;;5.41;54.00
35331;BME280;21441;52.190;20.910;2023-01-27T10:54:32;100716.16;;;5.14;54.19
35331;BME280;21441;52.190;20.910;2023-01-27T10:57:05;100702.50;;;4.75;55.17
35331;BME280;21441;52.190;20.910;2023-01-27T10:59:39;100719.69;;;4.69;56.63
35331;BME280;21441;52.190;20.910;2023-01-27T11:02:13;100718.38;;;4.64;57.30
35331;BME280;21441;52.190;20.910;2023-01-27T11:04:46;100723.78;;;4.51;57.25
35331;BME280;21441;52.190;20.910;2023-01-27T11:07:16;100713.69;;;4.22;59.30
35331;BME280;21441;52.190;20.910;2023-01-27T11:09:52;100708.63;;;4.08;59.93
35331;BME280;21441;52.190;20.910;2023-01-27T11:12:27;100718.31;;;3.85;61.75
35331;BME280;21441;52.190;20.910;2023-01-27T11:14:56;100693.81;;;3.71;61.32
35331;BME280;21441;52.190;20.910;2023-01-27T11:17:29;100718.09;;;3.64;63.21
35331;BME280;21441;52.190;20.910;2023-01-27T11:20:03;100708.22;;;3.43;63.69
35331;BME280;21441;52.190;20.910;2023-01-27T11:22:36;100713.75;;;3.51;64.11
35331;BME280;21441;52.190;20.910;2023-01-27T11:25:16;100699.22;;;3.46;65.17
35331;BME280;21441;52.190;20.910;2023-01-27T11:28:03;100706.28;;;3.45;64.96
35331;BME280;21441;52.190;20.910;2023-01-27T11:30:36;100707.00;;;3.36;66.50
35331;BME280;21441;52.190;20.910;2023-01-27T11:33:10;100702.44;;;3.14;69.08
35331;BME280;21441;52.190;20.910;2023-01-27T11:35:42;100701.81;;;3.10;71.12
35331;BME280;21441;52.190;20.910;2023-01-27T11:38:13;100692.38;;;2.95;72.29
35331;BME280;21441;52.190;20.910;2023-01-27T11:40:45;100690.94;;;3.15;71.61
35331;BME280;21441;52.190;20.910;2023-01-27T11:43:17;100700.47;;;3.29;72.15
35331;BME280;21441;52.190;20.910;2023-01-27T11:45:45;100690.09;;;3.15;73.72
35331;BME280;21441;52.190;20.910;2023-01-27T11:48:14;100703.34;;;3.26;74.06
35331;BME280;21441;52.190;20.910;2023-01-27T11:50:43;100700.91;;;2.99;74.17
35331;BME280;21441;52.190;20.910;2023-01-27T11:53:15;100687.13;;;2.95;74.84
35331;BME280;21441;52.190;20.910;2023-01-27T11:55:49;100703.81;;;3.31;73.74
35331;BME280;21441;52.190;20.910;2023-01-27T11:58:22;100696.66;;;3.09;75.62
35331;BME280;21441;52.190;20.910;2023-01-27T12:00:54;100702.16;;;3.06;75.83
35331;BME280;21441;52.190;20.910;2023-01-27T12:03:28;100692.09;;;3.11;75.59
35331;BME280;21441;52.190;20.910;2023-01-27T12:06:04;100703.28;;;3.15;74.04
35331;BME280;21441;52.190;20.910;2023-01-27T12:08:40;100699.28;;;3.09;73.93
35331;BME280;21441;52.190;20.910;2023-01-27T12:11:19;100696.22;;;3.15;73.94
35331;BME280;21441;52.190;20.910;2023-01-27T12:13:48;100698.94;;;3.14;74.62
35331;BME280;21441;52.190;20.910;2023-01-27T12:16:16;100701.66;;;3.01;75.62
35331;BME280;21441;52.190;20.910;2023-01-27T12:18:51;100688.91;;;2.95;76.19
35331;BME280;21441;52.190;20.910;2023-01-27T12:21:21;100705.31;;;2.98;78.65
35331;BME280;21441;52.190;20.910;2023-01-27T12:23:59;100696.03;;;2.81;80.91
35331;BME280;21441;52.190;20.910;2023-01-27T12:26:33;100696.78;;;2.71;82.22
35331;BME280;21441;52.190;20.910;2023-01-27T12:29:05;100684.78;;;2.66;83.79
35331;BME280;21441;52.190;20.910;2023-01-27T12:31:43;100698.66;;;2.81;84.74
35331;BME280;21441;52.190;20.910;2023-01-27T12:34:25;100694.38;;;2.92;84.70
35331;BME280;21441;52.190;20.910;2023-01-27T12:36:55;100704.06;;;3.04;83.19
35331;BME280;21441;52.190;20.910;2023-01-27T12:39:28;100694.59;;;3.01;82.79
35331;BME280;21441;52.190;20.910;2023-01-27T12:41:58;100694.41;;;3.16;81.32
35331;BME280;21441;52.190;20.910;2023-01-27T12:44:25;100695.84;;;2.96;79.90
35331;BME280;21441;52.190;20.910;2023-01-27T12:47:20;100689.06;;;2.80;80.08
35331;BME280;21441;52.190;20.910;2023-01-27T12:49:49;100707.69;;;2.90;80.09
35331;BME280;21441;52.190;20.910;2023-01-27T12:52:18;100711.09;;;3.16;79.63
35331;BME280;21441;52.190;20.910;2023-01-27T12:54:45;100710.84;;;3.19;79.28
35331;BME280;21441;52.190;20.910;2023-01-27T12:57:19;100693.81;;;3.12;78.38
35331;BME280;21441;52.190;20.910;2023-01-27T12:59:50;100718.47;;;3.11;78.57
35331;BME280;21441;52.190;20.910;2023-01-27T13:02:19;100711.97;;;3.28;78.51
35331;BME280;21441;52.190;20.910;2023-01-27T13:04:51;100707.31;;;3.32;77.93
35331;BME280;21441;52.190;20.910;2023-01-27T13:07:22;100709.78;;;3.22;79.72
35331;BME280;21441;52.190;20.910;2023-01-27T13:09:53;100695.41;;;3.50;79.94
35331;BME280;21441;52.190;20.910;2023-01-27T13:12:24;100705.47;;;3.45;80.78
35331;BME280;21441;52.190;20.910;2023-01-27T13:14:54;100704.06;;;3.28;83.15
35331;BME280;21441;52.190;20.910;2023-01-27T13:17:28;100698.41;;;3.21;84.26
35331;BME280;21441;52.190;20.910;2023-01-27T13:19:58;100702.81;;;2.97;87.49
35331;BME280;21441;52.190;20.910;2023-01-27T13:22:28;100690.28;;;2.87;89.71
35331;BME280;21441;52.190;20.910;2023-01-27T13:25:03;100700.41;;;3.18;90.69
35331;BME280;21441;52.190;20.910;2023-01-27T13:27:38;100705.34;;;3.22;91.51
35331;BME280;21441;52.190;20.910;2023-01-27T13:30:14;100710.44;;;2.88;95.57
35331;BME280;21441;52.190;20.910;2023-01-27T13:32:47;100700.16;;;2.73;99.02
35331;BME280;21441;52.190;20.910;2023-01-27T13:35:21;100715.22;;;2.71;100.00
35331;BME280;21441;52.190;20.910;2023-01-27T13:37:58;100711.19;;;2.78;100.00
35331;BME280;21441;52.190;20.910;2023-01-27T13:40:29;100711.94;;;2.80;100.00
35331;BME280;21441;52.190;20.910;2023-01-27T13:43:07;100714.81;;;2.77;100.00
35331;BME280;21441;52.190;20.910;2023-01-27T13:45:39;100708.66;;;2.76;100.00